TimeEDT,TemperatureF,Dew PointF,Humidity,Sea Level PressureIn,VisibilityMPH,Wind Direction,Wind SpeedMPH,Gust SpeedMPH,PrecipitationIn,Events,Conditions,WindDirDegrees,DateUTC
12:54 AM,69.1,68.0,96,30.09,-9999.0,SSW,10.4,17.3,N/A,,Unknown,200,2013-06-24 04:54:00
1:54 AM,69.1,68.0,96,30.08,-9999.0,SSW,6.9,-,N/A,,Unknown,210,2013-06-24 05:54:00
2:54 AM,69.1,68.0,96,30.07,-9999.0,SW,6.9,-,N/A,,Unknown,220,2013-06-24 06:54:00
3:54 AM,69.1,68.0,96,30.06,-9999.0,SW,4.6,-,N/A,,Unknown,220,2013-06-24 07:54:00
4:54 AM,68.0,66.9,96,30.06,-9999.0,Calm,Calm,-,N/A,,Unknown,0,2013-06-24 08:54:00
5:54 AM,66.9,66.9,100,30.05,-9999.0,SSW,3.5,-,N/A,,Unknown,200,2013-06-24 09:54:00
6:54 AM,68.0,68.0,100,30.05,-9999.0,Variable,3.5,-,N/A,,Unknown,0,2013-06-24 10:54:00
7:54 AM,71.1,69.1,93,30.05,-9999.0,WSW,5.8,-,N/A,,Unknown,250,2013-06-24 11:54:00
8:54 AM,77.0,71.1,82,30.05,-9999.0,West,6.9,-,N/A,,Unknown,260,2013-06-24 12:54:00
9:00 AM,-9999,-9999,N/A,-9999,-9999.0,North,-9999.0,-,N/A,,Unknown,0,2013-06-24 13:00:00
9:54 AM,79.0,71.1,77,30.04,-9999.0,West,6.9,-,N/A,,Unknown,260,2013-06-24 13:54:00
10:54 AM,78.1,70.0,76,30.04,-9999.0,West,5.8,-,N/A,,Unknown,270,2013-06-24 14:54:00
11:54 AM,82.9,71.1,67,30.03,-9999.0,West,9.2,-,N/A,,Unknown,260,2013-06-24 15:54:00
12:54 PM,86.0,70.0,59,30.02,-9999.0,WSW,6.9,-,N/A,,Unknown,240,2013-06-24 16:54:00
1:54 PM,87.1,71.1,59,30.01,-9999.0,Variable,3.5,-,N/A,,Unknown,0,2013-06-24 17:54:00
2:54 PM,88.0,71.1,57,29.99,-9999.0,Variable,5.8,-,N/A,,Unknown,0,2013-06-24 18:54:00
3:54 PM,84.0,72.0,67,29.97,-9999.0,South,5.8,-,N/A,,Unknown,190,2013-06-24 19:54:00
4:54 PM,84.9,70.0,61,29.96,-9999.0,SW,8.1,-,N/A,,Unknown,220,2013-06-24 20:54:00
5:54 PM,81.0,70.0,69,29.96,-9999.0,SW,8.1,-,N/A,,Unknown,220,2013-06-24 21:54:00
6:54 PM,78.1,69.1,74,29.97,-9999.0,SW,9.2,21.9,N/A,,Unknown,230,2013-06-24 22:54:00
7:54 PM,75.9,68.0,76,29.96,-9999.0,SW,9.2,-,N/A,,Unknown,230,2013-06-24 23:54:00
8:54 PM,77.0,68.0,74,29.97,-9999.0,West,6.9,-,N/A,,Unknown,260,2013-06-25 00:54:00
9:54 PM,75.0,63.0,66,30.00,-9999.0,NW,10.4,19.6,N/A,,Unknown,310,2013-06-25 01:54:00
10:54 PM,71.1,63.0,75,29.99,-9999.0,Calm,Calm,-,N/A,,Unknown,0,2013-06-25 02:54:00
11:54 PM,70.0,64.9,84,29.97,-9999.0,SSE,3.5,-,N/A,,Unknown,160,2013-06-25 03:54:00